sensor_id;sensor_type;location;lat;lon;timestamp;P1;durP1;ratioP1;P2;durP2;ratioP2
495;SDS011;39559;48.630;9.162;2023-09-07T00:00:16;6.53;;;5.47;;
495;SDS011;39559;48.630;9.162;2023-09-07T00:02:42;5.63;;;5.05;;
495;SDS011;39559;48.630;9.162;2023-09-07T00:05:08;6.17;;;5.43;;
495;SDS011;39559;48.630;9.162;2023-09-07T00:09:24;6.13;;;4.78;;
495;SDS011;39559;48.630;9.162;2023-09-07T00:14:42;7.28;;;5.18;;
495;SDS011;39559;48.630;9.162;2023-09-07T00:17:09;9.23;;;5.13;;
495;SDS011;39559;48.630;9.162;2023-09-07T00:19:36;7.78;;;5.75;;
495;SDS011;39559;48.630;9.162;2023-09-07T00:22:03;5.63;;;5.13;;
495;SDS011;39559;48.630;9.162;2023-09-07T00:24:30;6.47;;;5.30;;
495;SDS011;39559;48.630;9.162;2023-09-07T00:26:59;7.88;;;6.10;;
495;SDS011;39559;48.630;9.162;2023-09-07T00:29:27;7.57;;;5.07;;
495;SDS011;39559;48.630;9.162;2023-09-07T00:33:20;5.32;;;4.82;;
495;SDS011;39559;48.630;9.162;2023-09-07T00:35:46;8.27;;;5.50;;
495;SDS011;39559;48.630;9.162;2023-09-07T00:38:12;8.20;;;5.33;;
495;SDS011;39559;48.630;9.162;2023-09-07T00:40:37;5.93;;;5.37;;
495;SDS011;39559;48.630;9.162;2023-09-07T00:43:03;6.10;;;5.50;;
495;SDS011;39559;48.630;9.162;2023-09-07T00:45:30;6.30;;;5.70;;
495;SDS011;39559;48.630;9.162;2023-09-07T00:47:56;6.32;;;5.72;;
495;SDS011;39559;48.630;9.162;2023-09-07T00:50:21;6.53;;;5.27;;
495;SDS011;39559;48.630;9.162;2023-09-07T00:52:47;6.47;;;5.67;;
495;SDS011;39559;48.630;9.162;2023-09-07T00:57:17;7.15;;;5.55;;
495;SDS011;39559;48.630;9.162;2023-09-07T00:59:42;10.27;;;5.87;;
495;SDS011;39559;48.630;9.162;2023-09-07T01:02:08;6.70;;;6.00;;
495;SDS011;39559;48.630;9.162;2023-09-07T01:04:33;8.17;;;6.30;;
495;SDS011;39559;48.630;9.162;2023-09-07T01:07:03;7.57;;;5.97;;
495;SDS011;39559;48.630;9.162;2023-09-07T01:09:38;6.72;;;5.65;;
495;SDS011;39559;48.630;9.162;2023-09-07T01:12:07;6.43;;;5.80;;
495;SDS011;39559;48.630;9.162;2023-09-07T01:14:36;6.78;;;5.40;;
495;SDS011;39559;48.630;9.162;2023-09-07T01:17:03;8.57;;;6.03;;
495;SDS011;39559;48.630;9.162;2023-09-07T01:21:13;7.20;;;5.78;;
495;SDS011;39559;48.630;9.162;2023-09-07T01:23:40;6.82;;;6.13;;
495;SDS011;39559;48.630;9.162;2023-09-07T01:26:08;7.05;;;6.03;;
495;SDS011;39559;48.630;9.162;2023-09-07T01:28:34;6.60;;;5.45;;
495;SDS011;39559;48.630;9.162;2023-09-07T01:31:02;8.05;;;6.05;;
495;SDS011;39559;48.630;9.162;2023-09-07T01:33:28;6.80;;;5.73;;
495;SDS011;39559;48.630;9.162;2023-09-07T01:35:53;6.33;;;5.63;;
495;SDS011;39559;48.630;9.162;2023-09-07T01:38:19;8.30;;;6.80;;
495;SDS011;39559;48.630;9.162;2023-09-07T01:40:45;8.13;;;5.93;;
495;SDS011;39559;48.630;9.162;2023-09-07T01:45:10;6.70;;;5.88;;
495;SDS011;39559;48.630;9.162;2023-09-07T01:47:36;10.53;;;6.27;;
495;SDS011;39559;48.630;9.162;2023-09-07T01:50:02;6.57;;;5.77;;
495;SDS011;39559;48.630;9.162;2023-09-07T01:52:27;9.67;;;6.97;;
495;SDS011;39559;48.630;9.162;2023-09-07T01:54:54;6.40;;;5.37;;
495;SDS011;39559;48.630;9.162;2023-09-07T01:57:20;6.50;;;5.80;;
495;SDS011;39559;48.630;9.162;2023-09-07T01:59:46;6.70;;;6.10;;
495;SDS011;39559;48.630;9.162;2023-09-07T02:02:13;6.82;;;6.10;;
495;SDS011;39559;48.630;9.162;2023-09-07T02:04:39;6.30;;;5.70;;
495;SDS011;39559;48.630;9.162;2023-09-07T02:09:07;7.15;;;5.55;;
495;SDS011;39559;48.630;9.162;2023-09-07T02:11:33;6.37;;;5.73;;
495;SDS011;39559;48.630;9.162;2023-09-07T02:13:59;6.80;;;5.70;;
495;SDS011;39559;48.630;9.162;2023-09-07T02:16:24;6.17;;;5.67;;
495;SDS011;39559;48.630;9.162;2023-09-07T02:18:50;6.30;;;5.33;;
495;SDS011;39559;48.630;9.162;2023-09-07T02:21:16;7.80;;;6.50;;
495;SDS011;39559;48.630;9.162;2023-09-07T02:23:41;5.77;;;5.27;;
495;SDS011;39559;48.630;9.162;2023-09-07T02:26:07;6.37;;;5.53;;
495;SDS011;39559;48.630;9.162;2023-09-07T02:28:33;6.83;;;6.03;;
495;SDS011;39559;48.630;9.162;2023-09-07T02:33:04;6.45;;;5.30;;
495;SDS011;39559;48.630;9.162;2023-09-07T02:35:30;7.30;;;5.90;;
495;SDS011;39559;48.630;9.162;2023-09-07T02:37:56;6.30;;;5.13;;
495;SDS011;39559;48.630;9.162;2023-09-07T02:40:22;6.17;;;5.53;;
495;SDS011;39559;48.630;9.162;2023-09-07T02:42:48;6.97;;;5.63;;
495;SDS011;39559;48.630;9.162;2023-09-07T02:45:14;7.00;;;5.60;;
495;SDS011;39559;48.630;9.162;2023-09-07T02:47:39;8.67;;;6.30;;
495;SDS011;39559;48.630;9.162;2023-09-07T02:50:05;11.10;;;5.50;;
495;SDS011;39559;48.630;9.162;2023-09-07T02:52:31;5.95;;;5.35;;
495;SDS011;39559;48.630;9.162;2023-09-07T02:57:00;6.40;;;5.80;;
495;SDS011;39559;48.630;9.162;2023-09-07T02:59:26;7.53;;;5.60;;
495;SDS011;39559;48.630;9.162;2023-09-07T03:01:52;6.97;;;5.63;;
495;SDS011;39559;48.630;9.162;2023-09-07T03:04:17;6.70;;;5.63;;
495;SDS011;39559;48.630;9.162;2023-09-07T03:06:43;6.00;;;5.40;;
495;SDS011;39559;48.630;9.162;2023-09-07T03:09:08;7.13;;;5.43;;
495;SDS011;39559;48.630;9.162;2023-09-07T03:11:34;7.33;;;6.00;;
495;SDS011;39559;48.630;9.162;2023-09-07T03:14:01;7.00;;;6.30;;
495;SDS011;39559;48.630;9.162;2023-09-07T03:16:27;5.83;;;5.10;;
495;SDS011;39559;48.630;9.162;2023-09-07T03:20:59;6.15;;;5.03;;
495;SDS011;39559;48.630;9.162;2023-09-07T03:23:27;6.10;;;5.55;;
495;SDS011;39559;48.630;9.162;2023-09-07T03:25:53;7.72;;;5.78;;
495;SDS011;39559;48.630;9.162;2023-09-07T03:28:19;5.90;;;5.17;;
495;SDS011;39559;48.630;9.162;2023-09-07T03:30:45;6.63;;;5.50;;
495;SDS011;39559;48.630;9.162;2023-09-07T03:33:10;6.83;;;5.77;;
495;SDS011;39559;48.630;9.162;2023-09-07T03:35:36;7.13;;;6.07;;
495;SDS011;39559;48.630;9.162;2023-09-07T03:38:03;6.80;;;6.03;;
495;SDS011;39559;48.630;9.162;2023-09-07T03:40:29;7.30;;;6.37;;
495;SDS011;39559;48.630;9.162;2023-09-07T03:44:55;7.90;;;5.80;;
495;SDS011;39559;48.630;9.162;2023-09-07T03:47:21;8.33;;;6.90;;
495;SDS011;39559;48.630;9.162;2023-09-07T03:49:47;6.50;;;5.60;;
495;SDS011;39559;48.630;9.162;2023-09-07T03:52:12;6.07;;;5.47;;
495;SDS011;39559;48.630;9.162;2023-09-07T03:54:38;6.87;;;6.17;;
495;SDS011;39559;48.630;9.162;2023-09-07T03:57:04;8.70;;;6.27;;
495;SDS011;39559;48.630;9.162;2023-09-07T03:59:29;8.07;;;6.17;;
495;SDS011;39559;48.630;9.162;2023-09-07T04:01:55;10.30;;;6.07;;
495;SDS011;39559;48.630;9.162;2023-09-07T04:04:21;7.20;;;6.17;;
495;SDS011;39559;48.630;9.162;2023-09-07T04:08:54;6.07;;;5.43;;
495;SDS011;39559;48.630;9.162;2023-09-07T04:11:20;8.02;;;5.47;;
495;SDS011;39559;48.630;9.162;2023-09-07T04:13:46;7.33;;;5.70;;
495;SDS011;39559;48.630;9.162;2023-09-07T04:16:12;8.17;;;6.33;;
495;SDS011;39559;48.630;9.162;2023-09-07T04:18:37;5.80;;;4.97;;
495;SDS011;39559;48.630;9.162;2023-09-07T04:21:06;6.87;;;6.17;;
495;SDS011;39559;48.630;9.162;2023-09-07T04:23:32;7.00;;;5.75;;
495;SDS011;39559;48.630;9.162;2023-09-07T04:26:04;8.15;;;6.30;;
495;SDS011;39559;48.630;9.162;2023-09-07T04:28:33;8.05;;;6.45;;
495;SDS011;39559;48.630;9.162;2023-09-07T04:32:51;6.43;;;5.78;;
495;SDS011;39559;48.630;9.162;2023-09-07T04:35:17;6.23;;;5.50;;
495;SDS011;39559;48.630;9.162;2023-09-07T04:37:43;6.50;;;5.90;;
495;SDS011;39559;48.630;9.162;2023-09-07T04:40:09;6.35;;;5.50;;
495;SDS011;39559;48.630;9.162;2023-09-07T04:42:37;5.93;;;5.43;;
495;SDS011;39559;48.630;9.162;2023-09-07T04:45:04;7.38;;;6.20;;
495;SDS011;39559;48.630;9.162;2023-09-07T04:47:31;7.32;;;6.63;;
495;SDS011;39559;48.630;9.162;2023-09-07T04:49:57;6.40;;;5.80;;
495;SDS011;39559;48.630;9.162;2023-09-07T04:52:23;8.20;;;6.40;;
495;SDS011;39559;48.630;9.162;2023-09-07T04:56:56;8.25;;;5.63;;
495;SDS011;39559;48.630;9.162;2023-09-07T04:59:22;7.47;;;5.83;;
495;SDS011;39559;48.630;9.162;2023-09-07T05:01:47;7.53;;;6.07;;
495;SDS011;39559;48.630;9.162;2023-09-07T05:04:13;6.80;;;5.97;;
495;SDS011;39559;48.630;9.162;2023-09-07T05:06:39;6.45;;;5.80;;
495;SDS011;39559;48.630;9.162;2023-09-07T05:09:06;11.77;;;5.95;;
495;SDS011;39559;48.630;9.162;2023-09-07T05:11:32;7.30;;;6.20;;
495;SDS011;39559;48.630;9.162;2023-09-07T05:14:01;7.10;;;6.05;;
495;SDS011;39559;48.630;9.162;2023-09-07T05:16:28;6.57;;;5.45;;
495;SDS011;39559;48.630;9.162;2023-09-07T05:20:46;7.78;;;6.05;;
495;SDS011;39559;48.630;9.162;2023-09-07T05:23:14;7.88;;;5.70;;
495;SDS011;39559;48.630;9.162;2023-09-07T05:25:48;7.13;;;5.50;;
495;SDS011;39559;48.630;9.162;2023-09-07T05:28:20;6.63;;;6.03;;
495;SDS011;39559;48.630;9.162;2023-09-07T05:30:47;6.78;;;6.07;;
495;SDS011;39559;48.630;9.162;2023-09-07T05:33:14;6.37;;;5.80;;
495;SDS011;39559;48.630;9.162;2023-09-07T05:35:42;7.80;;;6.53;;
495;SDS011;39559;48.630;9.162;2023-09-07T05:38:09;7.53;;;5.78;;
495;SDS011;39559;48.630;9.162;2023-09-07T05:40:38;7.38;;;6.32;;
495;SDS011;39559;48.630;9.162;2023-09-07T05:44:45;7.72;;;6.50;;
495;SDS011;39559;48.630;9.162;2023-09-07T05:47:10;6.80;;;5.73;;
495;SDS011;39559;48.630;9.162;2023-09-07T05:49:36;6.57;;;5.97;;
495;SDS011;39559;48.630;9.162;2023-09-07T05:52:03;6.17;;;5.33;;
495;SDS011;39559;48.630;9.162;2023-09-07T05:54:29;6.97;;;6.13;;
495;SDS011;39559;48.630;9.162;2023-09-07T05:56:55;7.47;;;6.67;;
495;SDS011;39559;48.630;9.162;2023-09-07T05:59:21;6.93;;;5.73;;
495;SDS011;39559;48.630;9.162;2023-09-07T06:01:46;7.93;;;7.10;;
495;SDS011;39559;48.630;9.162;2023-09-07T06:04:12;5.70;;;5.20;;
495;SDS011;39559;48.630;9.162;2023-09-07T06:08:45;7.57;;;5.80;;
495;SDS011;39559;48.630;9.162;2023-09-07T06:11:11;7.30;;;6.60;;
495;SDS011;39559;48.630;9.162;2023-09-07T06:13:36;7.00;;;6.30;;
495;SDS011;39559;48.630;9.162;2023-09-07T06:16:02;8.00;;;6.40;;
495;SDS011;39559;48.630;9.162;2023-09-07T06:18:28;7.13;;;6.43;;
495;SDS011;39559;48.630;9.162;2023-09-07T06:20:54;6.80;;;6.20;;
495;SDS011;39559;48.630;9.162;2023-09-07T06:23:19;11.20;;;7.17;;
495;SDS011;39559;48.630;9.162;2023-09-07T06:25:45;8.03;;;6.63;;
495;SDS011;39559;48.630;9.162;2023-09-07T06:28:10;6.80;;;6.10;;
495;SDS011;39559;48.630;9.162;2023-09-07T06:32:39;10.20;;;8.07;;
495;SDS011;39559;48.630;9.162;2023-09-07T06:35:05;10.70;;;7.63;;
495;SDS011;39559;48.630;9.162;2023-09-07T06:37:31;10.10;;;7.28;;
495;SDS011;39559;48.630;9.162;2023-09-07T06:39:57;8.80;;;7.77;;
495;SDS011;39559;48.630;9.162;2023-09-07T06:42:22;8.43;;;6.97;;
495;SDS011;39559;48.630;9.162;2023-09-07T06:44:48;7.63;;;6.83;;
495;SDS011;39559;48.630;9.162;2023-09-07T06:47:13;9.17;;;7.40;;
495;SDS011;39559;48.630;9.162;2023-09-07T06:49:39;8.87;;;7.43;;
495;SDS011;39559;48.630;9.162;2023-09-07T06:52:05;11.47;;;7.37;;
495;SDS011;39559;48.630;9.162;2023-09-07T06:56:36;7.40;;;6.20;;
495;SDS011;39559;48.630;9.162;2023-09-07T06:59:02;7.93;;;7.13;;
495;SDS011;39559;48.630;9.162;2023-09-07T07:01:28;9.70;;;7.93;;
495;SDS011;39559;48.630;9.162;2023-09-07T07:03:54;8.90;;;7.63;;
495;SDS011;39559;48.630;9.162;2023-09-07T07:06:19;11.87;;;8.47;;
495;SDS011;39559;48.630;9.162;2023-09-07T07:08:45;8.27;;;7.47;;
495;SDS011;39559;48.630;9.162;2023-09-07T07:11:11;8.90;;;7.97;;
495;SDS011;39559;48.630;9.162;2023-09-07T07:13:36;8.73;;;7.67;;
495;SDS011;39559;48.630;9.162;2023-09-07T07:16:02;14.97;;;8.80;;
495;SDS011;39559;48.630;9.162;2023-09-07T07:20:40;9.90;;;8.90;;
495;SDS011;39559;48.630;9.162;2023-09-07T07:23:07;11.80;;;8.68;;
495;SDS011;39559;48.630;9.162;2023-09-07T07:25:33;9.47;;;8.33;;
495;SDS011;39559;48.630;9.162;2023-09-07T07:28:00;10.10;;;8.07;;
495;SDS011;39559;48.630;9.162;2023-09-07T07:30:28;8.75;;;7.85;;
495;SDS011;39559;48.630;9.162;2023-09-07T07:32:55;9.88;;;8.63;;
495;SDS011;39559;48.630;9.162;2023-09-07T07:35:21;10.65;;;8.40;;
495;SDS011;39559;48.630;9.162;2023-09-07T07:37:48;9.20;;;7.85;;
495;SDS011;39559;48.630;9.162;2023-09-07T07:40:14;8.82;;;7.93;;
495;SDS011;39559;48.630;9.162;2023-09-07T07:44:32;8.15;;;7.35;;
495;SDS011;39559;48.630;9.162;2023-09-07T07:46:57;11.70;;;8.03;;
495;SDS011;39559;48.630;9.162;2023-09-07T07:49:23;9.30;;;7.77;;
495;SDS011;39559;48.630;9.162;2023-09-07T07:51:49;11.87;;;8.57;;
495;SDS011;39559;48.630;9.162;2023-09-07T07:54:14;8.30;;;7.53;;
495;SDS011;39559;48.630;9.162;2023-09-07T07:56:41;12.18;;;6.97;;
495;SDS011;39559;48.630;9.162;2023-09-07T07:59:07;9.07;;;7.93;;
495;SDS011;39559;48.630;9.162;2023-09-07T08:01:32;13.20;;;8.20;;
495;SDS011;39559;48.630;9.162;2023-09-07T08:03:58;9.57;;;7.37;;
495;SDS011;39559;48.630;9.162;2023-09-07T08:08:30;9.90;;;7.45;;
495;SDS011;39559;48.630;9.162;2023-09-07T08:10:56;8.63;;;7.77;;
495;SDS011;39559;48.630;9.162;2023-09-07T08:13:22;8.00;;;7.20;;
495;SDS011;39559;48.630;9.162;2023-09-07T08:15:48;7.53;;;6.60;;
495;SDS011;39559;48.630;9.162;2023-09-07T08:18:14;7.37;;;6.23;;
495;SDS011;39559;48.630;9.162;2023-09-07T08:20:40;8.57;;;6.77;;
495;SDS011;39559;48.630;9.162;2023-09-07T08:23:06;7.03;;;6.37;;
495;SDS011;39559;48.630;9.162;2023-09-07T08:25:34;6.40;;;5.70;;
495;SDS011;39559;48.630;9.162;2023-09-07T08:28:00;6.50;;;5.90;;
495;SDS011;39559;48.630;9.162;2023-09-07T08:32:28;6.33;;;5.73;;
495;SDS011;39559;48.630;9.162;2023-09-07T08:34:53;6.70;;;6.00;;
495;SDS011;39559;48.630;9.162;2023-09-07T08:37:25;4.97;;;4.53;;
495;SDS011;39559;48.630;9.162;2023-09-07T08:39:50;9.70;;;5.60;;
495;SDS011;39559;48.630;9.162;2023-09-07T08:42:16;6.33;;;5.63;;
495;SDS011;39559;48.630;9.162;2023-09-07T08:44:41;6.10;;;5.33;;
495;SDS011;39559;48.630;9.162;2023-09-07T08:47:11;5.77;;;5.27;;
495;SDS011;39559;48.630;9.162;2023-09-07T08:49:39;7.00;;;5.70;;
495;SDS011;39559;48.630;9.162;2023-09-07T08:52:08;5.37;;;4.90;;
495;SDS011;39559;48.630;9.162;2023-09-07T08:56:25;7.57;;;6.10;;
495;SDS011;39559;48.630;9.162;2023-09-07T08:58:51;6.00;;;5.20;;
495;SDS011;39559;48.630;9.162;2023-09-07T09:01:17;5.23;;;4.80;;
495;SDS011;39559;48.630;9.162;2023-09-07T09:03:45;7.33;;;6.07;;
495;SDS011;39559;48.630;9.162;2023-09-07T09:06:11;9.63;;;5.83;;
495;SDS011;39559;48.630;9.162;2023-09-07T09:08:47;8.27;;;7.47;;
495;SDS011;39559;48.630;9.162;2023-09-07T09:11:16;9.10;;;6.77;;
495;SDS011;39559;48.630;9.162;2023-09-07T09:13:42;6.73;;;5.90;;
495;SDS011;39559;48.630;9.162;2023-09-07T09:16:11;22.13;;;6.30;;
495;SDS011;39559;48.630;9.162;2023-09-07T09:20:24;6.87;;;6.27;;
495;SDS011;39559;48.630;9.162;2023-09-07T09:22:52;6.23;;;5.60;;
495;SDS011;39559;48.630;9.162;2023-09-07T09:25:18;9.13;;;6.40;;
495;SDS011;39559;48.630;9.162;2023-09-07T09:27:44;7.87;;;6.10;;
495;SDS011;39559;48.630;9.162;2023-09-07T09:30:10;6.20;;;5.37;;
495;SDS011;39559;48.630;9.162;2023-09-07T09:32:37;7.30;;;6.50;;
495;SDS011;39559;48.630;9.162;2023-09-07T09:35:03;6.90;;;6.20;;
495;SDS011;39559;48.630;9.162;2023-09-07T09:37:30;6.93;;;6.23;;
495;SDS011;39559;48.630;9.162;2023-09-07T09:39:56;7.07;;;6.37;;
495;SDS011;39559;48.630;9.162;2023-09-07T09:44:21;8.33;;;6.87;;
495;SDS011;39559;48.630;9.162;2023-09-07T09:46:53;6.60;;;6.00;;
495;SDS011;39559;48.630;9.162;2023-09-07T09:49:20;7.50;;;6.37;;
495;SDS011;39559;48.630;9.162;2023-09-07T09:51:47;11.67;;;7.30;;
495;SDS011;39559;48.630;9.162;2023-09-07T09:54:17;6.83;;;6.13;;
495;SDS011;39559;48.630;9.162;2023-09-07T09:56:43;6.60;;;6.00;;
495;SDS011;39559;48.630;9.162;2023-09-07T09:59:10;6.53;;;5.90;;
495;SDS011;39559;48.630;9.162;2023-09-07T10:01:40;7.60;;;6.40;;
495;SDS011;39559;48.630;9.162;2023-09-07T10:04:10;6.37;;;5.77;;
495;SDS011;39559;48.630;9.162;2023-09-07T10:08:18;6.17;;;5.03;;
495;SDS011;39559;48.630;9.162;2023-09-07T10:10:48;6.47;;;5.30;;
495;SDS011;39559;48.630;9.162;2023-09-07T10:13:28;6.00;;;5.40;;
495;SDS011;39559;48.630;9.162;2023-09-07T10:18:36;7.17;;;6.10;;
495;SDS011;39559;48.630;9.162;2023-09-07T10:21:03;6.93;;;5.70;;
495;SDS011;39559;48.630;9.162;2023-09-07T10:23:43;5.87;;;5.20;;
495;SDS011;39559;48.630;9.162;2023-09-07T10:26:11;6.53;;;5.90;;
495;SDS011;39559;48.630;9.162;2023-09-07T10:28:39;6.50;;;5.80;;
495;SDS011;39559;48.630;9.162;2023-09-07T10:32:14;5.63;;;5.03;;
495;SDS011;39559;48.630;9.162;2023-09-07T10:34:41;6.50;;;5.90;;
495;SDS011;39559;48.630;9.162;2023-09-07T10:37:10;5.77;;;5.23;;
495;SDS011;39559;48.630;9.162;2023-09-07T10:39:41;6.47;;;5.87;;
495;SDS011;39559;48.630;9.162;2023-09-07T10:42:08;6.17;;;5.57;;
495;SDS011;39559;48.630;9.162;2023-09-07T10:44:45;6.33;;;5.40;;
495;SDS011;39559;48.630;9.162;2023-09-07T10:47:11;6.53;;;5.90;;
495;SDS011;39559;48.630;9.162;2023-09-07T10:49:37;6.37;;;5.77;;
495;SDS011;39559;48.630;9.162;2023-09-07T10:52:03;9.53;;;6.03;;
495;SDS011;39559;48.630;9.162;2023-09-07T10:56:11;8.00;;;6.03;;
495;SDS011;39559;48.630;9.162;2023-09-07T10:58:38;8.20;;;5.00;;
495;SDS011;39559;48.630;9.162;2023-09-07T11:01:06;6.47;;;5.83;;
495;SDS011;39559;48.630;9.162;2023-09-07T11:03:32;6.70;;;5.70;;
495;SDS011;39559;48.630;9.162;2023-09-07T11:08:35;7.90;;;5.80;;
495;SDS011;39559;48.630;9.162;2023-09-07T11:11:04;10.03;;;5.63;;
495;SDS011;39559;48.630;9.162;2023-09-07T11:13:30;7.70;;;6.63;;
495;SDS011;39559;48.630;9.162;2023-09-07T11:15:57;6.93;;;6.23;;
495;SDS011;39559;48.630;9.162;2023-09-07T11:20:08;7.00;;;6.40;;
495;SDS011;39559;48.630;9.162;2023-09-07T11:22:35;8.17;;;5.83;;
495;SDS011;39559;48.630;9.162;2023-09-07T11:25:04;6.90;;;6.03;;
495;SDS011;39559;48.630;9.162;2023-09-07T11:27:33;7.10;;;6.20;;
495;SDS011;39559;48.630;9.162;2023-09-07T11:30:00;6.30;;;5.70;;
495;SDS011;39559;48.630;9.162;2023-09-07T11:32:33;7.27;;;6.13;;
495;SDS011;39559;48.630;9.162;2023-09-07T11:34:59;6.83;;;5.60;;
495;SDS011;39559;48.630;9.162;2023-09-07T11:37:25;6.10;;;5.50;;
495;SDS011;39559;48.630;9.162;2023-09-07T11:39:52;6.60;;;6.00;;
495;SDS011;39559;48.630;9.162;2023-09-07T11:44:04;6.70;;;6.00;;
495;SDS011;39559;48.630;9.162;2023-09-07T11:46:30;6.07;;;5.47;;
495;SDS011;39559;48.630;9.162;2023-09-07T11:48:56;6.27;;;5.67;;
495;SDS011;39559;48.630;9.162;2023-09-07T11:51:21;6.10;;;5.60;;
495;SDS011;39559;48.630;9.162;2023-09-07T11:53:47;7.33;;;6.20;;
495;SDS011;39559;48.630;9.162;2023-09-07T11:56:12;9.47;;;6.13;;
495;SDS011;39559;48.630;9.162;2023-09-07T11:58:38;6.30;;;5.80;;
495;SDS011;39559;48.630;9.162;2023-09-07T12:01:04;5.97;;;5.37;;
495;SDS011;39559;48.630;9.162;2023-09-07T12:03:30;6.30;;;5.70;;
495;SDS011;39559;48.630;9.162;2023-09-07T12:08:01;7.17;;;5.57;;
495;SDS011;39559;48.630;9.162;2023-09-07T12:10:26;8.23;;;5.63;;
495;SDS011;39559;48.630;9.162;2023-09-07T12:12:52;5.63;;;5.20;;
495;SDS011;39559;48.630;9.162;2023-09-07T12:15:18;4.80;;;4.50;;
495;SDS011;39559;48.630;9.162;2023-09-07T12:17:43;6.13;;;5.53;;
495;SDS011;39559;48.630;9.162;2023-09-07T12:20:09;6.40;;;5.10;;
495;SDS011;39559;48.630;9.162;2023-09-07T12:22:36;5.80;;;5.27;;
495;SDS011;39559;48.630;9.162;2023-09-07T12:25:03;7.00;;;5.30;;
495;SDS011;39559;48.630;9.162;2023-09-07T12:27:33;5.63;;;4.83;;
495;SDS011;39559;48.630;9.162;2023-09-07T12:31:56;8.73;;;4.90;;
495;SDS011;39559;48.630;9.162;2023-09-07T12:34:22;5.03;;;4.33;;
495;SDS011;39559;48.630;9.162;2023-09-07T12:36:48;5.37;;;4.87;;
495;SDS011;39559;48.630;9.162;2023-09-07T12:39:14;5.57;;;5.07;;
495;SDS011;39559;48.630;9.162;2023-09-07T12:41:40;7.97;;;4.37;;
495;SDS011;39559;48.630;9.162;2023-09-07T12:44:06;6.07;;;5.47;;
495;SDS011;39559;48.630;9.162;2023-09-07T12:46:32;5.23;;;4.73;;
495;SDS011;39559;48.630;9.162;2023-09-07T12:48:58;5.60;;;5.10;;
495;SDS011;39559;48.630;9.162;2023-09-07T12:51:23;5.67;;;5.10;;
495;SDS011;39559;48.630;9.162;2023-09-07T12:55:53;5.30;;;4.60;;
495;SDS011;39559;48.630;9.162;2023-09-07T12:58:19;5.77;;;5.17;;
495;SDS011;39559;48.630;9.162;2023-09-07T13:00:45;5.30;;;4.80;;
495;SDS011;39559;48.630;9.162;2023-09-07T13:03:13;4.83;;;4.10;;
495;SDS011;39559;48.630;9.162;2023-09-07T13:05:39;5.60;;;5.00;;
495;SDS011;39559;48.630;9.162;2023-09-07T13:08:05;5.60;;;5.00;;
495;SDS011;39559;48.630;9.162;2023-09-07T13:10:32;5.70;;;5.03;;
495;SDS011;39559;48.630;9.162;2023-09-07T13:12:58;6.63;;;5.07;;
495;SDS011;39559;48.630;9.162;2023-09-07T13:15:23;5.30;;;4.80;;
495;SDS011;39559;48.630;9.162;2023-09-07T13:19:47;4.70;;;4.30;;
495;SDS011;39559;48.630;9.162;2023-09-07T13:22:13;5.27;;;3.93;;
495;SDS011;39559;48.630;9.162;2023-09-07T13:24:39;5.30;;;4.20;;
495;SDS011;39559;48.630;9.162;2023-09-07T13:27:05;8.50;;;4.83;;
495;SDS011;39559;48.630;9.162;2023-09-07T13:29:33;5.00;;;4.20;;
495;SDS011;39559;48.630;9.162;2023-09-07T13:31:59;6.60;;;5.17;;
495;SDS011;39559;48.630;9.162;2023-09-07T13:34:25;4.90;;;4.40;;
495;SDS011;39559;48.630;9.162;2023-09-07T13:36:50;4.57;;;4.13;;
495;SDS011;39559;48.630;9.162;2023-09-07T13:39:16;4.50;;;4.10;;
495;SDS011;39559;48.630;9.162;2023-09-07T13:43:41;4.87;;;4.03;;
495;SDS011;39559;48.630;9.162;2023-09-07T13:46:07;3.87;;;3.53;;
495;SDS011;39559;48.630;9.162;2023-09-07T13:48:32;7.40;;;5.37;;
495;SDS011;39559;48.630;9.162;2023-09-07T13:50:58;5.77;;;5.23;;
495;SDS011;39559;48.630;9.162;2023-09-07T13:53:24;7.03;;;5.20;;
495;SDS011;39559;48.630;9.162;2023-09-07T13:55:49;10.33;;;5.50;;
495;SDS011;39559;48.630;9.162;2023-09-07T13:58:15;5.33;;;4.53;;
495;SDS011;39559;48.630;9.162;2023-09-07T14:00:41;4.63;;;4.23;;
495;SDS011;39559;48.630;9.162;2023-09-07T14:03:07;6.77;;;4.97;;
495;SDS011;39559;48.630;9.162;2023-09-07T14:07:36;6.47;;;4.90;;
495;SDS011;39559;48.630;9.162;2023-09-07T14:10:01;8.60;;;4.60;;
495;SDS011;39559;48.630;9.162;2023-09-07T14:12:27;5.23;;;4.77;;
495;SDS011;39559;48.630;9.162;2023-09-07T14:14:52;5.30;;;4.80;;
495;SDS011;39559;48.630;9.162;2023-09-07T14:17:18;4.57;;;4.17;;
495;SDS011;39559;48.630;9.162;2023-09-07T14:19:44;4.37;;;3.97;;
495;SDS011;39559;48.630;9.162;2023-09-07T14:22:11;5.63;;;5.03;;
495;SDS011;39559;48.630;9.162;2023-09-07T14:24:37;4.90;;;4.40;;
495;SDS011;39559;48.630;9.162;2023-09-07T14:27:03;4.90;;;4.40;;
495;SDS011;39559;48.630;9.162;2023-09-07T14:31:30;9.43;;;5.30;;
495;SDS011;39559;48.630;9.162;2023-09-07T14:33:55;5.63;;;4.50;;
495;SDS011;39559;48.630;9.162;2023-09-07T14:36:21;5.70;;;5.20;;
495;SDS011;39559;48.630;9.162;2023-09-07T14:38:47;5.07;;;4.57;;
495;SDS011;39559;48.630;9.162;2023-09-07T14:41:12;4.80;;;4.43;;
495;SDS011;39559;48.630;9.162;2023-09-07T14:43:45;5.60;;;5.10;;
495;SDS011;39559;48.630;9.162;2023-09-07T14:46:11;5.40;;;4.57;;
495;SDS011;39559;48.630;9.162;2023-09-07T14:48:37;4.80;;;4.37;;
495;SDS011;39559;48.630;9.162;2023-09-07T14:51:02;6.77;;;4.90;;
495;SDS011;39559;48.630;9.162;2023-09-07T14:55:23;5.27;;;4.77;;
495;SDS011;39559;48.630;9.162;2023-09-07T14:57:49;6.13;;;4.37;;
495;SDS011;39559;48.630;9.162;2023-09-07T15:00:14;5.93;;;4.70;;
495;SDS011;39559;48.630;9.162;2023-09-07T15:02:40;5.20;;;4.70;;
495;SDS011;39559;48.630;9.162;2023-09-07T15:05:06;7.20;;;4.50;;
495;SDS011;39559;48.630;9.162;2023-09-07T15:07:32;5.10;;;4.60;;
495;SDS011;39559;48.630;9.162;2023-09-07T15:09:58;5.10;;;4.60;;
495;SDS011;39559;48.630;9.162;2023-09-07T15:12:23;4.80;;;4.40;;
495;SDS011;39559;48.630;9.162;2023-09-07T15:14:49;5.20;;;4.80;;
495;SDS011;39559;48.630;9.162;2023-09-07T15:19:17;4.03;;;3.63;;
495;SDS011;39559;48.630;9.162;2023-09-07T15:21:43;4.37;;;3.97;;
495;SDS011;39559;48.630;9.162;2023-09-07T15:24:08;4.93;;;4.43;;
495;SDS011;39559;48.630;9.162;2023-09-07T15:26:41;5.33;;;4.00;;
495;SDS011;39559;48.630;9.162;2023-09-07T15:29:08;5.63;;;4.67;;
495;SDS011;39559;48.630;9.162;2023-09-07T15:31:34;5.20;;;4.70;;
495;SDS011;39559;48.630;9.162;2023-09-07T15:33:59;5.40;;;4.90;;
495;SDS011;39559;48.630;9.162;2023-09-07T15:36:25;4.30;;;3.93;;
495;SDS011;39559;48.630;9.162;2023-09-07T15:38:51;4.50;;;4.10;;
495;SDS011;39559;48.630;9.162;2023-09-07T15:43:11;5.00;;;4.50;;
495;SDS011;39559;48.630;9.162;2023-09-07T15:45:37;5.30;;;4.80;;
495;SDS011;39559;48.630;9.162;2023-09-07T15:48:04;3.80;;;3.50;;
495;SDS011;39559;48.630;9.162;2023-09-07T15:50:30;4.60;;;4.20;;
495;SDS011;39559;48.630;9.162;2023-09-07T15:52:55;5.27;;;4.77;;
495;SDS011;39559;48.630;9.162;2023-09-07T15:55:21;6.50;;;4.40;;
495;SDS011;39559;48.630;9.162;2023-09-07T15:57:46;7.50;;;4.60;;
495;SDS011;39559;48.630;9.162;2023-09-07T16:00:13;5.50;;;4.70;;
495;SDS011;39559;48.630;9.162;2023-09-07T16:02:40;5.27;;;4.77;;
495;SDS011;39559;48.630;9.162;2023-09-07T16:07:04;4.20;;;3.80;;
495;SDS011;39559;48.630;9.162;2023-09-07T16:09:30;5.10;;;4.70;;
495;SDS011;39559;48.630;9.162;2023-09-07T16:11:55;4.90;;;4.37;;
495;SDS011;39559;48.630;9.162;2023-09-07T16:14:21;5.50;;;5.00;;
495;SDS011;39559;48.630;9.162;2023-09-07T16:16:46;6.07;;;4.83;;
495;SDS011;39559;48.630;9.162;2023-09-07T16:19:12;4.83;;;4.43;;
495;SDS011;39559;48.630;9.162;2023-09-07T16:21:38;5.40;;;4.90;;
495;SDS011;39559;48.630;9.162;2023-09-07T16:24:03;5.73;;;5.13;;
495;SDS011;39559;48.630;9.162;2023-09-07T16:26:30;5.03;;;4.60;;
495;SDS011;39559;48.630;9.162;2023-09-07T16:30:59;4.97;;;4.43;;
495;SDS011;39559;48.630;9.162;2023-09-07T16:33:24;5.00;;;4.60;;
495;SDS011;39559;48.630;9.162;2023-09-07T16:35:50;5.40;;;4.90;;
495;SDS011;39559;48.630;9.162;2023-09-07T16:38:15;5.07;;;4.67;;